Blue Puttees — VXKF — position and weather

sailwx.info

Track history (hours):
 
Tides and Currents Weather Stations Pressure Air Temp Water Temp Dewpoint Dewpoint Depression Visibility Wind Speed Wind Dir Waves Ship Positions

Blue Puttees

Last reported at 2018-Apr-24 04:00 UTC. Time now 2018-Apr-24 05:03 UTC.
Position N 46°24' W 060°00'.

Length 200 m; draft 6.2 m.

Type: Cargo ship. MMSI: 316014040.

Wind from 220 at 13 knots

Barometer 1027.1 mb
Air temperature 6.0 ° C
Dewpoint -6.6 ° C

Date/timePositionNaut miles runAvg speedWind from/ knotsBaromVisibWave heightAir tempDewpointWater temp
2018-Apr-24 04:00N 46°24' W 060°00'1514.6 220 / 131027.1 6.0-6.6
2018-Apr-24 03:00N 46°12' W 060°12'0 0.0 190 / 71027.1 4.6-6.4
2018-Apr-24 02:00N 46°12' W 060°12'0 0.0 220 / 51027.3 5.1-8.8
2018-Apr-24 01:00N 46°12' W 060°12'0 0.0 230 / 31027.2 6.9-9.2
2018-Apr-24 00:00N 46°12' W 060°12'0 0.0 250 / 41026.9 8.2-9.4
2018-Apr-23 23:00N 46°12' W 060°12'0 0.0 270 / 101026.3 9.6-10.5
2018-Apr-23 22:00N 46°12' W 060°12'0 0.0 280 / 91026.1 11.1-10.0
2018-Apr-23 21:00N 46°12' W 060°12'20 9.9 280 / 91026.1 12.0-10.3
2018-Apr-23 19:00N 46°30' W 060°00'2019.8 250 / 21025.3 7.4-8.8
2018-Apr-23 18:00N 46°48' W 059°48'1010.2 270 / 51025.3 4.9-4.8
2018-Apr-23 17:00N 46°54' W 059°36'2019.8 290 / 201024.0 2.0-1.9
2018-Apr-23 16:00N 47°12' W 059°24'1414.5 280 / 211024.2 1.1-0.5
2018-Apr-23 15:00N 47°24' W 059°12'1312.7 280 / 201023.4 1.1-0.0
2018-Apr-23 14:00N 47°36' W 059°06'0 0.0 280 / 71024.3 4.5-0.2
2018-Apr-23 13:00N 47°36' W 059°06'0 0.0 260 / 91023.9 3.1-0.1
2018-Apr-23 12:00N 47°36' W 059°06'0 0.0 280 / 91023.4 2.2 0.2
2018-Apr-23 11:00N 47°36' W 059°06'0 0.0 290 / 81023.0 1.7 0.1
2018-Apr-23 10:00N 47°36' W 059°06'7 7.2 300 / 91022.8 0.6-0.3
2018-Apr-23 09:00N 47°30' W 059°12'1818.5 310 / 191022.0 -0.0-1.3
2018-Apr-23 08:00N 47°12' W 059°18'1514.5 300 / 221021.6 0.1-3.0
2018-Apr-23 07:00N 47°00' W 059°30'1514.5 290 / 131022.3 0.2-3.4
2018-Apr-23 06:00N 46°48' W 059°42'1514.6 280 / 111022.3 0.2-4.6
2018-Apr-23 05:00N 46°36' W 059°54'1514.6 240 / 61022.6 0.8-4.9
2018-Apr-23 04:00N 46°24' W 060°06'1312.7 270 / 101022.7 1.7-8.2
2018-Apr-23 03:00N 46°12' W 060°12'0 0.0 260 / 71023.0 1.2-9.2
2018-Apr-23 02:00N 46°12' W 060°12'0 0.0 270 / 51023.0 2.3-10.4
2018-Apr-23 01:00N 46°12' W 060°12'0 0.0 280 / 41022.8 2.5-10.2
2018-Apr-23 00:00N 46°12' W 060°12'0 0.0 290 / 81021.9 3.4-10.2
2018-Apr-22 23:00N 46°12' W 060°12'0 0.0 300 / 81021.1 4.7-8.4
2018-Apr-22 22:00N 46°12' W 060°12'0 0.0 340 / 111020.4 6.1-6.2
2018-Apr-22 21:00N 46°12' W 060°12'6 6.0 070 / 91020.1 3.7-1.1
2018-Apr-22 20:00N 46°18' W 060°12'1514.6 030 / 61019.5 1.9-1.8
2018-Apr-22 19:00N 46°30' W 060°00'1514.6 340 / 121018.9 2.8-2.6
2018-Apr-22 18:00N 46°42' W 059°48'1514.5 310 / 171018.1 1.2-1.5
2018-Apr-22 17:00N 46°54' W 059°36'2019.8 290 / 191017.1 0.6-0.0
2018-Apr-22 16:00N 47°12' W 059°24'1414.5 280 / 171016.8 0.5-0.1
2018-Apr-22 15:00N 47°24' W 059°12'1312.7 290 / 191015.8 0.8-0.6
2018-Apr-22 14:00N 47°36' W 059°06'0 0.0 320 / 121016.4 4.0-3.5
2018-Apr-22 13:00N 47°36' W 059°06'0 0.0 310 / 111016.0 3.9-2.0
2018-Apr-22 12:00N 47°36' W 059°06'0 0.0 310 / 91016.1 3.2-1.8
2018-Apr-22 11:00N 47°36' W 059°06'0 0.0 290 / 61015.8 1.2 0.9
2018-Apr-22 10:00N 47°36' W 059°06'1212.0 290 / 21015.7 1.2 0.4
2018-Apr-22 09:00N 47°24' W 059°06'1414.5 300 / 151015.0 -0.2-0.4
2018-Apr-22 08:00N 47°12' W 059°18'1818.5 290 / 241015.1 -0.3-0.6
2018-Apr-22 07:00N 46°54' W 059°24'1413.7 290 / 241015.5 -0.1-1.6
2018-Apr-22 06:00N 46°48' W 059°42'1312.7 300 / 221015.7 -0.1-2.3
2018-Apr-22 05:00N 46°36' W 059°48'1514.6 280 / 121016.7 -0.3-2.6
2018-Apr-22 04:00N 46°24' W 060°00'1514.6 270 / 121017.2 -0.4-3.1
2018-Apr-22 03:00N 46°12' W 060°12'0 0.0 260 / 71017.7 -0.1-4.9
2018-Apr-22 02:00N 46°12' W 060°12'0 0.0 290 / 61017.6 0.1-5.1
2018-Apr-22 01:00N 46°12' W 060°12'0 0.0 320 / 41017.4 0.3-5.4
2018-Apr-22 00:00N 46°12' W 060°12'0 0.0 310 / 91016.8 0.7-5.4
2018-Apr-21 23:00N 46°12' W 060°12'0 0.0 290 / 111016.3 1.1-5.6
2018-Apr-21 22:00N 46°12' W 060°12'0 0.0 290 / 141015.7 1.8-6.1
2018-Apr-21 21:00N 46°12' W 060°12'6 6.0 280 / 171015.2 2.3-5.7
2018-Apr-21 20:00N 46°18' W 060°12'1514.6 290 / 191013.5 1.4-3.1
2018-Apr-21 19:00N 46°30' W 060°00'1514.6 280 / 171012.4 1.2-2.1
2018-Apr-21 18:00N 46°42' W 059°48'1514.5 290 / 171011.5 0.3-1.4
2018-Apr-21 17:00N 46°54' W 059°36'2019.8 290 / 261009.9 -0.5-1.3
2018-Apr-21 16:00N 47°12' W 059°24'1414.5 300 / 251008.4 -0.8-0.9
2018-Apr-21 15:00N 47°24' W 059°12'1312.7 290 / 291007.4 -0.7-0.8
2018-Apr-21 14:00N 47°36' W 059°06'0 0.0 300 / 161009.3 0.3 0.1
2018-Apr-21 13:00N 47°36' W 059°06'0 0.0 300 / 161008.9 0.4-0.2
2018-Apr-21 12:00N 47°36' W 059°06'0 0.0 300 / 161008.6 0.1-0.1
2018-Apr-21 11:00N 47°36' W 059°06'0 0.0 300 / 151008.3 -0.0-0.2
2018-Apr-21 10:00N 47°36' W 059°06'7 7.2 300 / 131008.0 -0.4-0.6
2018-Apr-21 09:00N 47°30' W 059°12'1717.3 310 / 271007.9 -1.1-1.3
2018-Apr-21 08:00N 47°24' W 059°36'2020.2 310 / 241008.7 -1.1-1.2
2018-Apr-21 07:00N 47°12' W 060°00'1818.5 310 / 271007.8 -0.9-1.1
2018-Apr-21 06:00N 46°54' W 060°06'1212.0 320 / 291007.9 -0.7-0.9
2018-Apr-21 05:00N 46°42' W 060°06'1212.0 310 / 221008.6 -0.7-0.9
2018-Apr-21 04:00N 46°30' W 060°06'1312.7 320 / 191008.4 0.1-1.7
2018-Apr-21 03:00N 46°18' W 060°12'6 6.0 320 / 131009.7 0.2-1.3
2018-Apr-21 02:00N 46°12' W 060°12'0 0.0 310 / 91009.6 0.4-1.8
2018-Apr-21 01:00N 46°12' W 060°12'0 0.0 310 / 61009.3 0.5-1.7
2018-Apr-21 00:00N 46°12' W 060°12'0 0.0 320 / 71008.4 0.6-1.2
2018-Apr-20 23:00N 46°12' W 060°12'0 0.0 330 / 51007.1 0.4 0.2
2018-Apr-20 22:00N 46°12' W 060°12'0 0.0 010 / 71005.8 1.0 0.8
2018-Apr-20 21:00N 46°12' W 060°12'6 6.0 360 / 111004.9 0.7 0.6
2018-Apr-20 20:00N 46°18' W 060°12'1514.6 350 / 231004.2 0.4 0.3
2018-Apr-20 19:00N 46°30' W 060°00'1514.6 320 / 221002.4 -0.3-0.4
2018-Apr-20 18:00N 46°42' W 059°48'1514.5 320 / 191001.6 -0.3-0.4
2018-Apr-20 17:00N 46°54' W 059°36'2019.8 340 / 191001.2 -0.0-0.1
2018-Apr-20 16:00N 47°12' W 059°24'1414.5 010 / 121001.1 1.4 1.2
2018-Apr-20 15:00N 47°24' W 059°12'1312.7 040 / 191001.2 2.1 1.1
2018-Apr-20 14:00N 47°36' W 059°06'0 0.0 050 / 171002.3 2.4 0.7
2018-Apr-20 13:00N 47°36' W 059°06'0 0.0 040 / 111002.9 1.8 1.6
2018-Apr-20 12:00N 47°36' W 059°06'0 0.0 040 / 101003.9 1.1 1.0
2018-Apr-20 11:00N 47°36' W 059°06'0 0.0 040 / 91004.4 0.7 0.7
2018-Apr-20 10:00N 47°36' W 059°06'1212.0 030 / 41004.4 0.3 0.3
2018-Apr-20 09:00N 47°24' W 059°06'1414.5 070 / 251001.4 0.3 0.2
2018-Apr-20 08:00N 47°12' W 059°18'1514.5 080 / 241001.1 0.2 0.2
2018-Apr-20 07:00N 47°00' W 059°30'1514.5 070 / 221001.9 0.5 0.5
2018-Apr-20 06:00N 46°48' W 059°42'1312.7 080 / 191002.8 0.2 0.1
2018-Apr-20 05:00N 46°36' W 059°48'1514.6 100 / 141004.6 0.5 0.4
2018-Apr-20 04:00N 46°24' W 060°00'1514.6 180 / 61005.8 2.7 2.6
2018-Apr-20 03:00N 46°12' W 060°12'0 0.0 020 / 51004.6 1.9 1.8
2018-Apr-20 02:00N 46°12' W 060°12'0 0.0 220 / 31005.9 4.1 2.7
2018-Apr-20 01:00N 46°12' W 060°12'0 0.0 200 / 81006.8 4.2 2.9
2018-Apr-20 00:00N 46°12' W 060°12'0 0.0 190 / 71007.0 6.0 2.0
2018-Apr-19 23:00N 46°12' W 060°12'0 0.0 100 / 71007.6 7.0 1.8
2018-Apr-19 22:00N 46°12' W 060°12'0 0.0 070 / 71007.6 6.6 1.9
2018-Apr-19 21:00N 46°12' W 060°12'6 6.0 260 / 61007.2 9.4 0.3
2018-Apr-19 20:00N 46°18' W 060°12'1717.3 320 / 41006.7 7.0 1.2
2018-Apr-19 19:00N 46°30' W 059°54'1818.5 310 / 81006.4 5.4 1.2
2018-Apr-19 18:00N 46°48' W 059°48'1514.5 280 / 41006.0 4.3 1.7
2018-Apr-19 17:00N 47°00' W 059°36'1514.5 280 / 91005.6 3.1 1.6
2018-Apr-19 16:00N 47°12' W 059°24'2019.8 270 / 141004.0 1.7 1.5
2018-Apr-19 15:00N 47°30' W 059°12'7 7.2 260 / 231003.0 1.2 1.0
2018-Apr-19 14:00N 47°36' W 059°06'0 0.0 250 / 161003.7 2.5 2.3
2018-Apr-19 13:00N 47°36' W 059°06'0 0.0 250 / 101002.7 1.6 1.5
2018-Apr-19 12:00N 47°36' W 059°06'0 0.0 240 / 71002.4 1.3 1.1
2018-Apr-19 11:00N 47°36' W 059°06'0 0.0 280 / 51001.8 1.3 1.2
2018-Apr-19 10:00N 47°36' W 059°06'1312.7 250 / 51001.0 1.0 0.9
2018-Apr-19 09:00N 47°24' W 059°12'1312.7 230 / 111000.4 0.9 0.8
2018-Apr-19 08:00N 47°12' W 059°18'1514.5 220 / 121000.1 0.7 0.6
2018-Apr-19 07:00N 47°00' W 059°30'1514.5 230 / 151000.1 0.6 0.4
2018-Apr-19 06:00N 46°48' W 059°42'1514.6 230 / 16999.7 0.9 0.7
2018-Apr-19 05:00N 46°36' W 059°54'1514.6 220 / 15999.7 1.9 1.7
2018-Apr-19 04:00N 46°24' W 060°06'1312.7 220 / 16999.7 3.1 2.9
2018-Apr-19 03:00N 46°12' W 060°12'0 0.0 220 / 12999.6 3.2 3.0
2018-Apr-19 02:00N 46°12' W 060°12'0 0.0 210 / 11999.5 2.9 2.7
2018-Apr-19 01:00N 46°12' W 060°12'0 0.0 210 / 10999.5 2.9 2.8
2018-Apr-19 00:00N 46°12' W 060°12'0 0.0 200 / 9999.3 3.3 3.1
2018-Apr-18 23:00N 46°12' W 060°12'0 0.0 200 / 13998.4 4.2 2.9
2018-Apr-18 22:00N 46°12' W 060°12'0 0.0 210 / 10997.8 5.3 3.3
2018-Apr-18 21:00N 46°12' W 060°12'7 7.3 190 / 11997.1 6.0 3.1
2018-Apr-18 20:00N 46°18' W 060°06'1312.7 220 / 18996.2 7.2 2.2
2018-Apr-18 19:00N 46°30' W 060°00'1514.6 240 / 18995.8 4.8 3.2
2018-Apr-18 18:00N 46°42' W 059°48'1514.5 200 / 8997.0 1.5 1.4
2018-Apr-18 17:00N 46°54' W 059°36'2019.8 160 / 7997.4 1.9 1.9
2018-Apr-18 16:00N 47°12' W 059°24'2713.5 250 / 6997.7 1.1 1.1
2018-Apr-18 14:00N 47°36' W 059°06'0 0.0 080 / 131000.7 2.9 2.8
2018-Apr-18 13:00N 47°36' W 059°06'0 0.0 080 / 151000.0 3.0 3.0
2018-Apr-18 12:00N 47°36' W 059°06'0 0.0 070 / 131001.3 2.3 2.3
2018-Apr-18 11:00N 47°36' W 059°06'0 0.0 080 / 151001.2 2.1 2.1
2018-Apr-18 10:00N 47°36' W 059°06'0 0.0 070 / 201000.9 1.6 1.6
2018-Apr-18 09:00N 47°36' W 059°06'0 0.0 080 / 271000.4 1.6 1.5
2018-Apr-18 08:00N 47°36' W 059°06'0 0.0 080 / 28999.9 1.2 1.1
2018-Apr-18 07:00N 47°36' W 059°06'0 0.0 090 / 301001.5 0.8 0.7
2018-Apr-18 06:00N 47°36' W 059°06'0 0.0 090 / 331001.8 0.5 0.4
2018-Apr-18 05:00N 47°36' W 059°06'0 0.0 090 / 331003.4 0.3 0.2
2018-Apr-18 04:00N 47°36' W 059°06'0 0.0 100 / 361003.7 -0.0-0.1
2018-Apr-18 03:00N 47°36' W 059°06'0 0.0 090 / 421004.9 -0.2-0.3
2018-Apr-18 02:00N 47°36' W 059°06'0 0.0 090 / 391006.3 -0.2-0.4
2018-Apr-18 01:00N 47°36' W 059°06'0 0.0 090 / 401008.7 -0.2-0.4
2018-Apr-18 00:00N 47°36' W 059°06'0 0.0 100 / 371010.9 0.1-0.7
2018-Apr-17 23:00N 47°36' W 059°06'0 0.0 100 / 341011.9 0.2-1.9
2018-Apr-17 22:00N 47°36' W 059°06'0 0.0 090 / 321013.9 0.3-1.8
2018-Apr-17 21:00N 47°36' W 059°06'0 0.0 090 / 281015.5 0.4-2.1
2018-Apr-17 20:00N 47°36' W 059°06'6 6.0 090 / 261016.0 0.8-2.8
2018-Apr-17 19:00N 47°30' W 059°06'2019.8 090 / 291014.6 0.1-0.6
2018-Apr-17 18:00N 47°12' W 059°18'2221.8 100 / 251015.7 0.4-0.3
2018-Apr-17 17:00N 46°54' W 059°36'1514.5 110 / 231016.7 0.2-1.3
2018-Apr-17 16:00N 46°42' W 059°48'2019.8 110 / 221017.5 -0.3-0.7
2018-Apr-17 15:00N 46°24' W 060°00'1514.6 110 / 191018.7 -0.3-0.9
2018-Apr-17 14:00N 46°12' W 060°12'0 0.0 090 / 51020.5 0.9-0.6
2018-Apr-17 13:00N 46°12' W 060°12'0 0.0 090 / 81021.3 0.8-2.7
2018-Apr-17 12:00N 46°12' W 060°12'0 0.0 110 / 51022.1 1.5-5.4
2018-Apr-17 11:00N 46°12' W 060°12'0 0.0 100 / 51022.5 0.9-4.8
2018-Apr-17 10:00N 46°12' W 060°12'7 7.3 110 / 41023.4 0.8-2.1
2018-Apr-17 09:00N 46°18' W 060°06'1514.6 130 / 111023.5 -0.9-1.1
2018-Apr-17 08:00N 46°30' W 059°54'1312.7 130 / 91024.4 -1.5-2.1
2018-Apr-17 07:00N 46°42' W 059°48'1312.7 230 / 21025.7 -1.6-1.8
2018-Apr-17 06:00N 46°54' W 059°42'1514.5 240 / 51026.3 -1.4-3.0
2018-Apr-17 05:00N 47°06' W 059°30'1312.7 270 / 41026.7 -1.5-5.0
2018-Apr-17 04:00N 47°18' W 059°24'1414.5 320 / 81026.9 -1.4-5.7
2018-Apr-17 03:00N 47°30' W 059°12'7 7.2 310 / 101027.1 -1.5-6.0
2018-Apr-17 02:00N 47°36' W 059°06'0 0.0 320 / 21028.3 -2.2-8.9
2018-Apr-17 01:00N 47°36' W 059°06'0 0.0 320 / 61028.4 -3.0-8.5
2018-Apr-17 00:00N 47°36' W 059°06'0 0.0 300 / 81028.9 -1.7-7.0
2018-Apr-16 23:00N 47°36' W 059°06'0 0.0 290 / 81028.9 -1.4-6.6
2018-Apr-16 22:00N 47°36' W 059°06'0 0.0 300 / 121029.7 -0.8-6.8
2018-Apr-16 21:00N 47°36' W 059°06'1818.5 300 / 131028.1 0.1-7.5
2018-Apr-16 20:00N 47°18' W 059°12'1514.5 320 / 191030.2 -0.6-5.0
2018-Apr-16 19:00N 47°06' W 059°24'2019.8 320 / 161030.9 -0.5-2.4
2018-Apr-16 18:00N 46°48' W 059°36'1717.2 340 / 181030.9 -0.9-1.4
2018-Apr-16 17:00N 46°36' W 059°54'2019.8 020 / 121032.4 -0.5-2.5
2018-Apr-16 16:00N 46°18' W 060°06'7 7.3 080 / 81032.9 1.7-7.4
2018-Apr-16 15:00N 46°12' W 060°12'0 0.0 090 / 31034.4 4.5-5.9
2018-Apr-16 14:00N 46°12' W 060°12'0 0.0 180 / 21034.8 4.1-6.9
2018-Apr-16 13:00N 46°12' W 060°12'0 0.0 200 / 21035.2 1.9-5.2
2018-Apr-16 12:00N 46°12' W 060°12'0 0.0 200 / 31035.5 -0.9-4.9
2018-Apr-16 11:00N 46°12' W 060°12'7 7.3 210 / 61035.7 -3.5-5.3
2018-Apr-16 10:00N 46°18' W 060°06'2019.8 250 / 101034.7 -2.5-4.9
2018-Apr-16 09:00N 46°36' W 059°54'1312.7 290 / 111034.7 -2.7-4.9
2018-Apr-16 08:00N 46°48' W 059°48'1010.2 300 / 191034.4 -2.2-4.2
2018-Apr-16 07:00N 46°54' W 059°36'2019.8 290 / 191034.1 -1.7-3.2
2018-Apr-16 06:00N 47°12' W 059°24'1312.7 310 / 191034.2 -1.7-3.4
2018-Apr-16 05:00N 47°24' W 059°18'1414.5 310 / 181033.9 -1.8-4.2
2018-Apr-16 04:00N 47°36' W 059°06'0 0.0 320 / 91034.8 -4.0-6.4
2018-Apr-16 03:00N 47°36' W 059°06'0 0.0 320 / 81034.6 -4.5-6.7
2018-Apr-16 02:00N 47°36' W 059°06'0 0.0 310 / 101034.2 -4.9-7.3
2018-Apr-16 01:00N 47°36' W 059°06'0 0.0 300 / 91034.4 -4.4-7.2
2018-Apr-16 00:00N 47°36' W 059°06'7 7.2 310 / 91033.8 -3.9-7.7
2018-Apr-15 23:00N 47°30' W 059°12'2020.2 340 / 311031.2 -4.0-7.0
2018-Apr-15 22:00N 47°18' W 059°36'2221.8 340 / 301030.9 -4.5-7.6
2018-Apr-15 21:00N 47°00' W 059°54'0 0.0 330 / 351030.1 -4.9-9.0
2018-Apr-15 20:00N 47°00' W 059°54'1212.0 330 / 301031.1 -4.6-8.5
2018-Apr-15 19:00N 47°12' W 059°54'1312.7 330 / 251030.0 -4.9-9.8
2018-Apr-15 18:00N 47°00' W 060°00'1818.5 320 / 361027.5 -5.3-9.6
2018-Apr-15 17:00N 46°42' W 060°06'1818.0 330 / 271027.8 -4.2-10.6
2018-Apr-15 16:00N 46°24' W 060°06'1312.7 320 / 221028.1 -3.9-10.9
2018-Apr-15 15:00N 46°12' W 060°12'0 0.0 300 / 131029.5 -2.2-11.2
2018-Apr-15 14:00N 46°12' W 060°12'0 0.0 300 / 101029.5 -2.8-11.6
2018-Apr-15 13:00N 46°12' W 060°12'0 0.0 300 / 201028.3 -3.4-12.1
2018-Apr-15 12:00N 46°12' W 060°12'0 0.0 310 / 141027.9 -3.6-10.6
2018-Apr-15 11:00N 46°12' W 060°12'0 0.0 330 / 111027.7 -3.6-11.6
2018-Apr-15 10:00N 46°12' W 060°12'0 0.0 320 / 81026.8 -3.7-11.9
2018-Apr-15 09:00N 46°12' W 060°12'0 0.0 310 / 111026.2 -3.6-11.8
2018-Apr-15 08:00N 46°12' W 060°12'0 0.0 310 / 61025.1 -3.6-11.4
2018-Apr-15 07:00N 46°12' W 060°12'0 0.0 320 / 91024.4 -3.4-11.1
2018-Apr-15 06:00N 46°12' W 060°12'0 0.0 300 / 111023.4 -3.3-10.6
2018-Apr-15 05:00N 46°12' W 060°12'0 0.0 290 / 101022.8 -3.4-10.2
2018-Apr-15 04:00N 46°12' W 060°12'0 0.0 300 / 131022.1 -3.5-9.6
2018-Apr-15 03:00N 46°12' W 060°12'0 0.0 300 / 151020.6 -3.6-9.9
2018-Apr-15 02:00N 46°12' W 060°12'0 0.0 300 / 181019.8 -3.9-10.7
2018-Apr-15 01:00N 46°12' W 060°12'0 0.0 320 / 211019.9 -3.8-12.0
2018-Apr-15 00:00N 46°12' W 060°12'0 0.0 310 / 171018.5 -3.6-11.1
2018-Apr-14 23:00N 46°12' W 060°12'0 0.0 300 / 191016.6 -2.9-13.3
2018-Apr-14 22:00N 46°12' W 060°12'0 0.0 310 / 231014.8 -2.8-12.0
2018-Apr-14 21:00N 46°12' W 060°12'0 0.0 320 / 191013.7 -1.6-11.8
2018-Apr-14 20:00N 46°12' W 060°12'0 0.0 320 / 181012.1 -1.0-10.4
2018-Apr-14 19:00N 46°12' W 060°12'0 0.0 310 / 151011.3 0.4-9.5
2018-Apr-14 18:00N 46°12' W 060°12'0 0.0 300 / 211009.5 1.5-9.8
2018-Apr-14 17:00N 46°12' W 060°12'0 0.0 290 / 151009.1 2.4-5.5
2018-Apr-14 16:00N 46°12' W 060°12'0 0.0 300 / 101008.5 3.6-2.1
2018-Apr-14 15:00N 46°12' W 060°12'0 0.0 280 / 121008.8 4.0 1.2
2018-Apr-14 14:00N 46°12' W 060°12'0 0.0 240 / 111008.4 4.3 4.1
2018-Apr-14 13:00N 46°12' W 060°12'0 0.0 210 / 81009.1 3.5 3.4
2018-Apr-14 12:00N 46°12' W 060°12'0 0.0 200 / 71009.9 3.0 2.8
2018-Apr-14 11:00N 46°12' W 060°12'0 0.0 200 / 91010.6 2.5 2.3
2018-Apr-14 10:00N 46°12' W 060°12'7 7.3 190 / 71009.8 2.4 2.2
2018-Apr-14 09:00N 46°18' W 060°06'1514.6 230 / 191009.1 2.2 2.0
2018-Apr-14 08:00N 46°30' W 059°54'1312.7 230 / 181009.0 0.4 0.3
2018-Apr-14 07:00N 46°42' W 059°48'1312.7 240 / 171009.0 0.2 0.1
2018-Apr-14 06:00N 46°54' W 059°42'1514.5 220 / 151009.1 0.2 0.1
2018-Apr-14 05:00N 47°06' W 059°30'1312.7 270 / 141009.1 -0.1-0.1
2018-Apr-14 04:00N 47°18' W 059°24'   280 / 191008.2 -1.1-1.2
Track history (hours):
 
Tides and Currents Weather Stations Pressure Air Temp Water Temp Dewpoint Dewpoint Depression Visibility Wind Speed Wind Dir Waves Ship Positions

Blue Puttees

Last reported at 2018-Apr-24 04:00 UTC. Time now 2018-Apr-24 05:03 UTC.
Position N 46°24' W 060°00'.

Length 200 m; draft 6.2 m.

Type: Cargo ship. MMSI: 316014040.

Wind from 220 at 13 knots

Barometer 1027.1 mb
Air temperature 6.0 ° C
Dewpoint -6.6 ° C

Date/timePositionNaut miles runAvg speedWind from/ knotsBaromVisibWave heightAir tempDewpointWater temp
2018-Apr-24 04:00N 46°24' W 060°00'1514.6 220 / 131027.1 6.0-6.6
2018-Apr-24 03:00N 46°12' W 060°12'0 0.0 190 / 71027.1 4.6-6.4
2018-Apr-24 02:00N 46°12' W 060°12'0 0.0 220 / 51027.3 5.1-8.8
2018-Apr-24 01:00N 46°12' W 060°12'0 0.0 230 / 31027.2 6.9-9.2
2018-Apr-24 00:00N 46°12' W 060°12'0 0.0 250 / 41026.9 8.2-9.4
2018-Apr-23 23:00N 46°12' W 060°12'0 0.0 270 / 101026.3 9.6-10.5
2018-Apr-23 22:00N 46°12' W 060°12'0 0.0 280 / 91026.1 11.1-10.0
2018-Apr-23 21:00N 46°12' W 060°12'20 9.9 280 / 91026.1 12.0-10.3
2018-Apr-23 19:00N 46°30' W 060°00'2019.8 250 / 21025.3 7.4-8.8
2018-Apr-23 18:00N 46°48' W 059°48'1010.2 270 / 51025.3 4.9-4.8
2018-Apr-23 17:00N 46°54' W 059°36'2019.8 290 / 201024.0 2.0-1.9
2018-Apr-23 16:00N 47°12' W 059°24'1414.5 280 / 211024.2 1.1-0.5
2018-Apr-23 15:00N 47°24' W 059°12'1312.7 280 / 201023.4 1.1-0.0
2018-Apr-23 14:00N 47°36' W 059°06'0 0.0 280 / 71024.3 4.5-0.2
2018-Apr-23 13:00N 47°36' W 059°06'0 0.0 260 / 91023.9 3.1-0.1
2018-Apr-23 12:00N 47°36' W 059°06'0 0.0 280 / 91023.4 2.2 0.2
2018-Apr-23 11:00N 47°36' W 059°06'0 0.0 290 / 81023.0 1.7 0.1
2018-Apr-23 10:00N 47°36' W 059°06'7 7.2 300 / 91022.8 0.6-0.3
2018-Apr-23 09:00N 47°30' W 059°12'1818.5 310 / 191022.0 -0.0-1.3
2018-Apr-23 08:00N 47°12' W 059°18'1514.5 300 / 221021.6 0.1-3.0
2018-Apr-23 07:00N 47°00' W 059°30'1514.5 290 / 131022.3 0.2-3.4
2018-Apr-23 06:00N 46°48' W 059°42'1514.6 280 / 111022.3 0.2-4.6
2018-Apr-23 05:00N 46°36' W 059°54'1514.6 240 / 61022.6 0.8-4.9
2018-Apr-23 04:00N 46°24' W 060°06'1312.7 270 / 101022.7 1.7-8.2
2018-Apr-23 03:00N 46°12' W 060°12'0 0.0 260 / 71023.0 1.2-9.2
2018-Apr-23 02:00N 46°12' W 060°12'0 0.0 270 / 51023.0 2.3-10.4
2018-Apr-23 01:00N 46°12' W 060°12'0 0.0 280 / 41022.8 2.5-10.2
2018-Apr-23 00:00N 46°12' W 060°12'0 0.0 290 / 81021.9 3.4-10.2
2018-Apr-22 23:00N 46°12' W 060°12'0 0.0 300 / 81021.1 4.7-8.4
2018-Apr-22 22:00N 46°12' W 060°12'0 0.0 340 / 111020.4 6.1-6.2
2018-Apr-22 21:00N 46°12' W 060°12'6 6.0 070 / 91020.1 3.7-1.1
2018-Apr-22 20:00N 46°18' W 060°12'1514.6 030 / 61019.5 1.9-1.8
2018-Apr-22 19:00N 46°30' W 060°00'1514.6 340 / 121018.9 2.8-2.6
2018-Apr-22 18:00N 46°42' W 059°48'1514.5 310 / 171018.1 1.2-1.5
2018-Apr-22 17:00N 46°54' W 059°36'2019.8 290 / 191017.1 0.6-0.0
2018-Apr-22 16:00N 47°12' W 059°24'1414.5 280 / 171016.8 0.5-0.1
2018-Apr-22 15:00N 47°24' W 059°12'1312.7 290 / 191015.8 0.8-0.6
2018-Apr-22 14:00N 47°36' W 059°06'0 0.0 320 / 121016.4 4.0-3.5
2018-Apr-22 13:00N 47°36' W 059°06'0 0.0 310 / 111016.0 3.9-2.0
2018-Apr-22 12:00N 47°36' W 059°06'0 0.0 310 / 91016.1 3.2-1.8
2018-Apr-22 11:00N 47°36' W 059°06'0 0.0 290 / 61015.8 1.2 0.9
2018-Apr-22 10:00N 47°36' W 059°06'1212.0 290 / 21015.7 1.2 0.4
2018-Apr-22 09:00N 47°24' W 059°06'1414.5 300 / 151015.0 -0.2-0.4
2018-Apr-22 08:00N 47°12' W 059°18'1818.5 290 / 241015.1 -0.3-0.6
2018-Apr-22 07:00N 46°54' W 059°24'1413.7 290 / 241015.5 -0.1-1.6
2018-Apr-22 06:00N 46°48' W 059°42'1312.7 300 / 221015.7 -0.1-2.3
2018-Apr-22 05:00N 46°36' W 059°48'1514.6 280 / 121016.7 -0.3-2.6
2018-Apr-22 04:00N 46°24' W 060°00'1514.6 270 / 121017.2 -0.4-3.1
2018-Apr-22 03:00N 46°12' W 060°12'0 0.0 260 / 71017.7 -0.1-4.9
2018-Apr-22 02:00N 46°12' W 060°12'0 0.0 290 / 61017.6 0.1-5.1
2018-Apr-22 01:00N 46°12' W 060°12'0 0.0 320 / 41017.4 0.3-5.4
2018-Apr-22 00:00N 46°12' W 060°12'0 0.0 310 / 91016.8 0.7-5.4
2018-Apr-21 23:00N 46°12' W 060°12'0 0.0 290 / 111016.3 1.1-5.6
2018-Apr-21 22:00N 46°12' W 060°12'0 0.0 290 / 141015.7 1.8-6.1
2018-Apr-21 21:00N 46°12' W 060°12'6 6.0 280 / 171015.2 2.3-5.7
2018-Apr-21 20:00N 46°18' W 060°12'1514.6 290 / 191013.5 1.4-3.1
2018-Apr-21 19:00N 46°30' W 060°00'1514.6 280 / 171012.4 1.2-2.1
2018-Apr-21 18:00N 46°42' W 059°48'1514.5 290 / 171011.5 0.3-1.4
2018-Apr-21 17:00N 46°54' W 059°36'2019.8 290 / 261009.9 -0.5-1.3
2018-Apr-21 16:00N 47°12' W 059°24'1414.5 300 / 251008.4 -0.8-0.9
2018-Apr-21 15:00N 47°24' W 059°12'1312.7 290 / 291007.4 -0.7-0.8
2018-Apr-21 14:00N 47°36' W 059°06'0 0.0 300 / 161009.3 0.3 0.1
2018-Apr-21 13:00N 47°36' W 059°06'0 0.0 300 / 161008.9 0.4-0.2
2018-Apr-21 12:00N 47°36' W 059°06'0 0.0 300 / 161008.6 0.1-0.1
2018-Apr-21 11:00N 47°36' W 059°06'0 0.0 300 / 151008.3 -0.0-0.2
2018-Apr-21 10:00N 47°36' W 059°06'7 7.2 300 / 131008.0 -0.4-0.6
2018-Apr-21 09:00N 47°30' W 059°12'1717.3 310 / 271007.9 -1.1-1.3
2018-Apr-21 08:00N 47°24' W 059°36'2020.2 310 / 241008.7 -1.1-1.2
2018-Apr-21 07:00N 47°12' W 060°00'1818.5 310 / 271007.8 -0.9-1.1
2018-Apr-21 06:00N 46°54' W 060°06'1212.0 320 / 291007.9 -0.7-0.9
2018-Apr-21 05:00N 46°42' W 060°06'1212.0 310 / 221008.6 -0.7-0.9
2018-Apr-21 04:00N 46°30' W 060°06'1312.7 320 / 191008.4 0.1-1.7
2018-Apr-21 03:00N 46°18' W 060°12'6 6.0 320 / 131009.7 0.2-1.3
2018-Apr-21 02:00N 46°12' W 060°12'0 0.0 310 / 91009.6 0.4-1.8
2018-Apr-21 01:00N 46°12' W 060°12'0 0.0 310 / 61009.3 0.5-1.7
2018-Apr-21 00:00N 46°12' W 060°12'0 0.0 320 / 71008.4 0.6-1.2
2018-Apr-20 23:00N 46°12' W 060°12'0 0.0 330 / 51007.1 0.4 0.2
2018-Apr-20 22:00N 46°12' W 060°12'0 0.0 010 / 71005.8 1.0 0.8
2018-Apr-20 21:00N 46°12' W 060°12'6 6.0 360 / 111004.9 0.7 0.6
2018-Apr-20 20:00N 46°18' W 060°12'1514.6 350 / 231004.2 0.4 0.3
2018-Apr-20 19:00N 46°30' W 060°00'1514.6 320 / 221002.4 -0.3-0.4
2018-Apr-20 18:00N 46°42' W 059°48'1514.5 320 / 191001.6 -0.3-0.4
2018-Apr-20 17:00N 46°54' W 059°36'2019.8 340 / 191001.2 -0.0-0.1
2018-Apr-20 16:00N 47°12' W 059°24'1414.5 010 / 121001.1 1.4 1.2
2018-Apr-20 15:00N 47°24' W 059°12'1312.7 040 / 191001.2 2.1 1.1
2018-Apr-20 14:00N 47°36' W 059°06'0 0.0 050 / 171002.3 2.4 0.7
2018-Apr-20 13:00N 47°36' W 059°06'0 0.0 040 / 111002.9 1.8 1.6
2018-Apr-20 12:00N 47°36' W 059°06'0 0.0 040 / 101003.9 1.1 1.0
2018-Apr-20 11:00N 47°36' W 059°06'0 0.0 040 / 91004.4 0.7 0.7
2018-Apr-20 10:00N 47°36' W 059°06'1212.0 030 / 41004.4 0.3 0.3
2018-Apr-20 09:00N 47°24' W 059°06'1414.5 070 / 251001.4 0.3 0.2
2018-Apr-20 08:00N 47°12' W 059°18'1514.5 080 / 241001.1 0.2 0.2
2018-Apr-20 07:00N 47°00' W 059°30'1514.5 070 / 221001.9 0.5 0.5
2018-Apr-20 06:00N 46°48' W 059°42'1312.7 080 / 191002.8 0.2 0.1
2018-Apr-20 05:00N 46°36' W 059°48'1514.6 100 / 141004.6 0.5 0.4
2018-Apr-20 04:00N 46°24' W 060°00'1514.6 180 / 61005.8 2.7 2.6
2018-Apr-20 03:00N 46°12' W 060°12'0 0.0 020 / 51004.6 1.9 1.8
2018-Apr-20 02:00N 46°12' W 060°12'0 0.0 220 / 31005.9 4.1 2.7
2018-Apr-20 01:00N 46°12' W 060°12'0 0.0 200 / 81006.8 4.2 2.9
2018-Apr-20 00:00N 46°12' W 060°12'0 0.0 190 / 71007.0 6.0 2.0
2018-Apr-19 23:00N 46°12' W 060°12'0 0.0 100 / 71007.6 7.0 1.8
2018-Apr-19 22:00N 46°12' W 060°12'0 0.0 070 / 71007.6 6.6 1.9
2018-Apr-19 21:00N 46°12' W 060°12'6 6.0 260 / 61007.2 9.4 0.3
2018-Apr-19 20:00N 46°18' W 060°12'1717.3 320 / 41006.7 7.0 1.2
2018-Apr-19 19:00N 46°30' W 059°54'1818.5 310 / 81006.4 5.4 1.2
2018-Apr-19 18:00N 46°48' W 059°48'1514.5 280 / 41006.0 4.3 1.7
2018-Apr-19 17:00N 47°00' W 059°36'1514.5 280 / 91005.6 3.1 1.6
2018-Apr-19 16:00N 47°12' W 059°24'2019.8 270 / 141004.0 1.7 1.5
2018-Apr-19 15:00N 47°30' W 059°12'7 7.2 260 / 231003.0 1.2 1.0
2018-Apr-19 14:00N 47°36' W 059°06'0 0.0 250 / 161003.7 2.5 2.3
2018-Apr-19 13:00N 47°36' W 059°06'0 0.0 250 / 101002.7 1.6 1.5
2018-Apr-19 12:00N 47°36' W 059°06'0 0.0 240 / 71002.4 1.3 1.1
2018-Apr-19 11:00N 47°36' W 059°06'0 0.0 280 / 51001.8 1.3 1.2
2018-Apr-19 10:00N 47°36' W 059°06'1312.7 250 / 51001.0 1.0 0.9
2018-Apr-19 09:00N 47°24' W 059°12'1312.7 230 / 111000.4 0.9 0.8
2018-Apr-19 08:00N 47°12' W 059°18'1514.5 220 / 121000.1 0.7 0.6
2018-Apr-19 07:00N 47°00' W 059°30'1514.5 230 / 151000.1 0.6 0.4
2018-Apr-19 06:00N 46°48' W 059°42'1514.6 230 / 16999.7 0.9 0.7
2018-Apr-19 05:00N 46°36' W 059°54'1514.6 220 / 15999.7 1.9 1.7
2018-Apr-19 04:00N 46°24' W 060°06'1312.7 220 / 16999.7 3.1 2.9
2018-Apr-19 03:00N 46°12' W 060°12'0 0.0 220 / 12999.6 3.2 3.0
2018-Apr-19 02:00N 46°12' W 060°12'0 0.0 210 / 11999.5 2.9 2.7
2018-Apr-19 01:00N 46°12' W 060°12'0 0.0 210 / 10999.5 2.9 2.8
2018-Apr-19 00:00N 46°12' W 060°12'0 0.0 200 / 9999.3 3.3 3.1
2018-Apr-18 23:00N 46°12' W 060°12'0 0.0 200 / 13998.4 4.2 2.9
2018-Apr-18 22:00N 46°12' W 060°12'0 0.0 210 / 10997.8 5.3 3.3
2018-Apr-18 21:00N 46°12' W 060°12'7 7.3 190 / 11997.1 6.0 3.1
2018-Apr-18 20:00N 46°18' W 060°06'1312.7 220 / 18996.2 7.2 2.2
2018-Apr-18 19:00N 46°30' W 060°00'1514.6 240 / 18995.8 4.8 3.2
2018-Apr-18 18:00N 46°42' W 059°48'1514.5 200 / 8997.0 1.5 1.4
2018-Apr-18 17:00N 46°54' W 059°36'2019.8 160 / 7997.4 1.9 1.9
2018-Apr-18 16:00N 47°12' W 059°24'2713.5 250 / 6997.7 1.1 1.1
2018-Apr-18 14:00N 47°36' W 059°06'0 0.0 080 / 131000.7 2.9 2.8
2018-Apr-18 13:00N 47°36' W 059°06'0 0.0 080 / 151000.0 3.0 3.0
2018-Apr-18 12:00N 47°36' W 059°06'0 0.0 070 / 131001.3 2.3 2.3
2018-Apr-18 11:00N 47°36' W 059°06'0 0.0 080 / 151001.2 2.1 2.1
2018-Apr-18 10:00N 47°36' W 059°06'0 0.0 070 / 201000.9 1.6 1.6
2018-Apr-18 09:00N 47°36' W 059°06'0 0.0 080 / 271000.4 1.6 1.5
2018-Apr-18 08:00N 47°36' W 059°06'0 0.0 080 / 28999.9 1.2 1.1
2018-Apr-18 07:00N 47°36' W 059°06'0 0.0 090 / 301001.5 0.8 0.7
2018-Apr-18 06:00N 47°36' W 059°06'0 0.0 090 / 331001.8 0.5 0.4
2018-Apr-18 05:00N 47°36' W 059°06'0 0.0 090 / 331003.4 0.3 0.2
2018-Apr-18 04:00N 47°36' W 059°06'0 0.0 100 / 361003.7 -0.0-0.1
2018-Apr-18 03:00N 47°36' W 059°06'0 0.0 090 / 421004.9 -0.2-0.3
2018-Apr-18 02:00N 47°36' W 059°06'0 0.0 090 / 391006.3 -0.2-0.4
2018-Apr-18 01:00N 47°36' W 059°06'0 0.0 090 / 401008.7 -0.2-0.4
2018-Apr-18 00:00N 47°36' W 059°06'0 0.0 100 / 371010.9 0.1-0.7
2018-Apr-17 23:00N 47°36' W 059°06'0 0.0 100 / 341011.9 0.2-1.9
2018-Apr-17 22:00N 47°36' W 059°06'0 0.0 090 / 321013.9 0.3-1.8
2018-Apr-17 21:00N 47°36' W 059°06'0 0.0 090 / 281015.5 0.4-2.1
2018-Apr-17 20:00N 47°36' W 059°06'6 6.0 090 / 261016.0 0.8-2.8
2018-Apr-17 19:00N 47°30' W 059°06'2019.8 090 / 291014.6 0.1-0.6
2018-Apr-17 18:00N 47°12' W 059°18'2221.8 100 / 251015.7 0.4-0.3
2018-Apr-17 17:00N 46°54' W 059°36'1514.5 110 / 231016.7 0.2-1.3
2018-Apr-17 16:00N 46°42' W 059°48'2019.8 110 / 221017.5 -0.3-0.7
2018-Apr-17 15:00N 46°24' W 060°00'1514.6 110 / 191018.7 -0.3-0.9
2018-Apr-17 14:00N 46°12' W 060°12'0 0.0 090 / 51020.5 0.9-0.6
2018-Apr-17 13:00N 46°12' W 060°12'0 0.0 090 / 81021.3 0.8-2.7
2018-Apr-17 12:00N 46°12' W 060°12'0 0.0 110 / 51022.1 1.5-5.4
2018-Apr-17 11:00N 46°12' W 060°12'0 0.0 100 / 51022.5 0.9-4.8
2018-Apr-17 10:00N 46°12' W 060°12'7 7.3 110 / 41023.4 0.8-2.1
2018-Apr-17 09:00N 46°18' W 060°06'1514.6 130 / 111023.5 -0.9-1.1
2018-Apr-17 08:00N 46°30' W 059°54'1312.7 130 / 91024.4 -1.5-2.1
2018-Apr-17 07:00N 46°42' W 059°48'1312.7 230 / 21025.7 -1.6-1.8
2018-Apr-17 06:00N 46°54' W 059°42'1514.5 240 / 51026.3 -1.4-3.0
2018-Apr-17 05:00N 47°06' W 059°30'1312.7 270 / 41026.7 -1.5-5.0
2018-Apr-17 04:00N 47°18' W 059°24'1414.5 320 / 81026.9 -1.4-5.7
2018-Apr-17 03:00N 47°30' W 059°12'7 7.2 310 / 101027.1 -1.5-6.0
2018-Apr-17 02:00N 47°36' W 059°06'0 0.0 320 / 21028.3 -2.2-8.9
2018-Apr-17 01:00N 47°36' W 059°06'0 0.0 320 / 61028.4 -3.0-8.5
2018-Apr-17 00:00N 47°36' W 059°06'0 0.0 300 / 81028.9 -1.7-7.0
2018-Apr-16 23:00N 47°36' W 059°06'0 0.0 290 / 81028.9 -1.4-6.6
2018-Apr-16 22:00N 47°36' W 059°06'0 0.0 300 / 121029.7 -0.8-6.8
2018-Apr-16 21:00N 47°36' W 059°06'1818.5 300 / 131028.1 0.1-7.5
2018-Apr-16 20:00N 47°18' W 059°12'1514.5 320 / 191030.2 -0.6-5.0
2018-Apr-16 19:00N 47°06' W 059°24'2019.8 320 / 161030.9 -0.5-2.4
2018-Apr-16 18:00N 46°48' W 059°36'1717.2 340 / 181030.9 -0.9-1.4
2018-Apr-16 17:00N 46°36' W 059°54'2019.8 020 / 121032.4 -0.5-2.5
2018-Apr-16 16:00N 46°18' W 060°06'7 7.3 080 / 81032.9 1.7-7.4
2018-Apr-16 15:00N 46°12' W 060°12'0 0.0 090 / 31034.4 4.5-5.9
2018-Apr-16 14:00N 46°12' W 060°12'0 0.0 180 / 21034.8 4.1-6.9
2018-Apr-16 13:00N 46°12' W 060°12'0 0.0 200 / 21035.2 1.9-5.2
2018-Apr-16 12:00N 46°12' W 060°12'0 0.0 200 / 31035.5 -0.9-4.9
2018-Apr-16 11:00N 46°12' W 060°12'7 7.3 210 / 61035.7 -3.5-5.3
2018-Apr-16 10:00N 46°18' W 060°06'2019.8 250 / 101034.7 -2.5-4.9
2018-Apr-16 09:00N 46°36' W 059°54'1312.7 290 / 111034.7 -2.7-4.9
2018-Apr-16 08:00N 46°48' W 059°48'1010.2 300 / 191034.4 -2.2-4.2
2018-Apr-16 07:00N 46°54' W 059°36'2019.8 290 / 191034.1 -1.7-3.2
2018-Apr-16 06:00N 47°12' W 059°24'1312.7 310 / 191034.2 -1.7-3.4
2018-Apr-16 05:00N 47°24' W 059°18'1414.5 310 / 181033.9 -1.8-4.2
2018-Apr-16 04:00N 47°36' W 059°06'0 0.0 320 / 91034.8 -4.0-6.4
2018-Apr-16 03:00N 47°36' W 059°06'0 0.0 320 / 81034.6 -4.5-6.7
2018-Apr-16 02:00N 47°36' W 059°06'0 0.0 310 / 101034.2 -4.9-7.3
2018-Apr-16 01:00N 47°36' W 059°06'0 0.0 300 / 91034.4 -4.4-7.2
2018-Apr-16 00:00N 47°36' W 059°06'7 7.2 310 / 91033.8 -3.9-7.7
2018-Apr-15 23:00N 47°30' W 059°12'2020.2 340 / 311031.2 -4.0-7.0
2018-Apr-15 22:00N 47°18' W 059°36'2221.8 340 / 301030.9 -4.5-7.6
2018-Apr-15 21:00N 47°00' W 059°54'0 0.0 330 / 351030.1 -4.9-9.0
2018-Apr-15 20:00N 47°00' W 059°54'1212.0 330 / 301031.1 -4.6-8.5
2018-Apr-15 19:00N 47°12' W 059°54'1312.7 330 / 251030.0 -4.9-9.8
2018-Apr-15 18:00N 47°00' W 060°00'1818.5 320 / 361027.5 -5.3-9.6
2018-Apr-15 17:00N 46°42' W 060°06'1818.0 330 / 271027.8 -4.2-10.6
2018-Apr-15 16:00N 46°24' W 060°06'1312.7 320 / 221028.1 -3.9-10.9
2018-Apr-15 15:00N 46°12' W 060°12'0 0.0 300 / 131029.5 -2.2-11.2
2018-Apr-15 14:00N 46°12' W 060°12'0 0.0 300 / 101029.5 -2.8-11.6
2018-Apr-15 13:00N 46°12' W 060°12'0 0.0 300 / 201028.3 -3.4-12.1
2018-Apr-15 12:00N 46°12' W 060°12'0 0.0 310 / 141027.9 -3.6-10.6
2018-Apr-15 11:00N 46°12' W 060°12'0 0.0 330 / 111027.7 -3.6-11.6
2018-Apr-15 10:00N 46°12' W 060°12'0 0.0 320 / 81026.8 -3.7-11.9
2018-Apr-15 09:00N 46°12' W 060°12'0 0.0 310 / 111026.2 -3.6-11.8
2018-Apr-15 08:00N 46°12' W 060°12'0 0.0 310 / 61025.1 -3.6-11.4
2018-Apr-15 07:00N 46°12' W 060°12'0 0.0 320 / 91024.4 -3.4-11.1
2018-Apr-15 06:00N 46°12' W 060°12'0 0.0 300 / 111023.4 -3.3-10.6
2018-Apr-15 05:00N 46°12' W 060°12'0 0.0 290 / 101022.8 -3.4-10.2
2018-Apr-15 04:00N 46°12' W 060°12'0 0.0 300 / 131022.1 -3.5-9.6
2018-Apr-15 03:00N 46°12' W 060°12'0 0.0 300 / 151020.6 -3.6-9.9
2018-Apr-15 02:00N 46°12' W 060°12'0 0.0 300 / 181019.8 -3.9-10.7
2018-Apr-15 01:00N 46°12' W 060°12'0 0.0 320 / 211019.9 -3.8-12.0
2018-Apr-15 00:00N 46°12' W 060°12'0 0.0 310 / 171018.5 -3.6-11.1
2018-Apr-14 23:00N 46°12' W 060°12'0 0.0 300 / 191016.6 -2.9-13.3
2018-Apr-14 22:00N 46°12' W 060°12'0 0.0 310 / 231014.8 -2.8-12.0
2018-Apr-14 21:00N 46°12' W 060°12'0 0.0 320 / 191013.7 -1.6-11.8
2018-Apr-14 20:00N 46°12' W 060°12'0 0.0 320 / 181012.1 -1.0-10.4
2018-Apr-14 19:00N 46°12' W 060°12'0 0.0 310 / 151011.3 0.4-9.5
2018-Apr-14 18:00N 46°12' W 060°12'0 0.0 300 / 211009.5 1.5-9.8
2018-Apr-14 17:00N 46°12' W 060°12'0 0.0 290 / 151009.1 2.4-5.5
2018-Apr-14 16:00N 46°12' W 060°12'0 0.0 300 / 101008.5 3.6-2.1
2018-Apr-14 15:00N 46°12' W 060°12'0 0.0 280 / 121008.8 4.0 1.2
2018-Apr-14 14:00N 46°12' W 060°12'0 0.0 240 / 111008.4 4.3 4.1
2018-Apr-14 13:00N 46°12' W 060°12'0 0.0 210 / 81009.1 3.5 3.4
2018-Apr-14 12:00N 46°12' W 060°12'0 0.0 200 / 71009.9 3.0 2.8
2018-Apr-14 11:00N 46°12' W 060°12'0 0.0 200 / 91010.6 2.5 2.3
2018-Apr-14 10:00N 46°12' W 060°12'7 7.3 190 / 71009.8 2.4 2.2
2018-Apr-14 09:00N 46°18' W 060°06'1514.6 230 / 191009.1 2.2 2.0
2018-Apr-14 08:00N 46°30' W 059°54'1312.7 230 / 181009.0 0.4 0.3
2018-Apr-14 07:00N 46°42' W 059°48'1312.7 240 / 171009.0 0.2 0.1
2018-Apr-14 06:00N 46°54' W 059°42'1514.5 220 / 151009.1 0.2 0.1
2018-Apr-14 05:00N 47°06' W 059°30'1312.7 270 / 141009.1 -0.1-0.1
2018-Apr-14 04:00N 47°18' W 059°24'   280 / 191008.2 -1.1-1.2

Dump ship's entire track history